createdAt,value
2023-05-27T00:00:46.404Z,39.10
2023-05-27T00:01:46.401Z,39.08
2023-05-27T00:02:46.521Z,39.08
2023-05-27T00:03:46.607Z,39.10
2023-05-27T00:04:46.570Z,39.07
2023-05-27T00:05:46.509Z,39.07
2023-05-27T00:06:46.525Z,39.08
2023-05-27T00:07:46.530Z,39.05
2023-05-27T00:08:46.557Z,39.06
2023-05-27T00:09:46.624Z,39.02
2023-05-27T00:10:46.629Z,39.05
2023-05-27T00:11:46.629Z,39.04
2023-05-27T00:12:46.656Z,39.04
2023-05-27T00:13:46.669Z,39.05
2023-05-27T00:14:46.676Z,39.05
2023-05-27T00:15:46.721Z,39.05
2023-05-27T00:16:46.761Z,39.03
2023-05-27T00:17:46.794Z,39.05
2023-05-27T00:18:46.811Z,39.04
2023-05-27T00:19:46.810Z,39.03
2023-05-27T00:20:46.874Z,39.03
2023-05-27T00:21:46.863Z,39.06
2023-05-27T00:22:46.882Z,39.04
2023-05-27T00:23:46.903Z,39.02
2023-05-27T00:24:46.917Z,39.02
2023-05-27T00:25:46.945Z,39.01
2023-05-27T00:26:46.977Z,39.02
2023-05-27T00:27:47.003Z,39.02
2023-05-27T00:28:47.030Z,39.01
2023-05-27T00:29:47.050Z,39.01
2023-05-27T00:30:47.078Z,39.03
2023-05-27T00:31:47.203Z,39.01
2023-05-27T00:32:47.144Z,39.00
2023-05-27T00:33:47.142Z,39.03
2023-05-27T00:34:47.153Z,38.99
2023-05-27T00:35:47.268Z,39.00
2023-05-27T00:36:47.199Z,39.02
2023-05-27T00:37:47.224Z,39.04
2023-05-27T00:38:47.269Z,39.01
2023-05-27T00:39:47.293Z,39.02
2023-05-27T00:40:47.305Z,39.02
2023-05-27T00:41:47.329Z,39.02
2023-05-27T00:42:47.376Z,39.02
2023-05-27T00:43:47.390Z,39.04
2023-05-27T00:44:47.426Z,39.06
2023-05-27T00:45:47.462Z,39.07
2023-05-27T00:46:47.498Z,39.13
2023-05-27T00:47:47.597Z,39.11
2023-05-27T00:48:47.566Z,39.18
2023-05-27T00:49:47.597Z,39.23
2023-05-27T00:50:47.622Z,39.24
2023-05-27T00:51:47.667Z,39.23
2023-05-27T00:52:47.687Z,39.23
2023-05-27T00:53:47.698Z,39.25
2023-05-27T00:54:47.725Z,39.26
2023-05-27T00:55:47.774Z,39.29
2023-05-27T00:56:47.802Z,39.30
2023-05-27T00:57:47.832Z,39.31
2023-05-27T00:58:47.862Z,39.29
2023-05-27T00:59:47.887Z,39.30
2023-05-27T01:00:47.921Z,39.29
2023-05-27T01:01:48.009Z,39.30
2023-05-27T01:02:48.057Z,39.30
2023-05-27T01:03:48.035Z,39.31
2023-05-27T01:04:48.079Z,39.32
2023-05-27T01:05:48.146Z,39.31
2023-05-27T01:06:48.108Z,39.32
2023-05-27T01:07:48.164Z,39.31
2023-05-27T01:08:48.186Z,39.32
2023-05-27T01:09:48.212Z,39.31
2023-05-27T01:10:48.264Z,39.30
2023-05-27T01:11:48.314Z,39.28
2023-05-27T01:12:48.339Z,39.28
2023-05-27T01:13:48.397Z,39.28
2023-05-27T01:14:48.419Z,39.24
2023-05-27T01:15:48.460Z,39.26
2023-05-27T01:16:48.556Z,39.24
2023-05-27T01:17:48.580Z,39.23
2023-05-27T01:18:48.572Z,39.22
2023-05-27T01:19:48.595Z,39.20
2023-05-27T01:20:48.715Z,39.19
2023-05-27T01:21:48.672Z,39.20
2023-05-27T01:22:48.714Z,39.16
2023-05-27T01:23:48.757Z,39.18
2023-05-27T01:24:48.773Z,39.18
2023-05-27T01:25:49.069Z,39.20
2023-05-27T01:26:48.871Z,39.19
2023-05-27T01:27:48.910Z,39.21
2023-05-27T01:28:48.954Z,39.19
2023-05-27T01:29:48.996Z,39.22
2023-05-27T01:30:49.024Z,39.22
2023-05-27T01:31:49.145Z,39.23
2023-05-27T01:32:49.175Z,39.23
2023-05-27T01:33:49.247Z,39.28
2023-05-27T01:34:49.211Z,39.29
2023-05-27T01:35:49.395Z,39.29
2023-05-27T01:36:49.312Z,39.31
2023-05-27T01:37:49.310Z,39.32
2023-05-27T01:38:49.362Z,39.32
2023-05-27T01:39:49.394Z,39.33
2023-05-27T01:40:49.463Z,39.37
2023-05-27T01:41:49.518Z,39.35
2023-05-27T01:42:49.538Z,39.37
2023-05-27T01:43:49.583Z,39.36
2023-05-27T01:44:49.618Z,39.34
2023-05-27T01:45:49.854Z,39.38
2023-05-27T01:46:49.782Z,39.40
2023-05-27T01:47:49.781Z,39.39
2023-05-27T01:48:49.801Z,39.39
2023-05-27T01:49:49.837Z,39.37
2023-05-27T01:50:49.869Z,39.38
2023-05-27T01:51:49.901Z,39.42
2023-05-27T01:52:49.925Z,39.41
2023-05-27T01:53:49.999Z,39.43
2023-05-27T01:54:50.010Z,39.42
2023-05-27T01:55:50.256Z,39.39
2023-05-27T01:56:50.096Z,39.42
2023-05-27T01:57:50.154Z,39.43
2023-05-27T01:58:50.210Z,39.47
2023-05-27T01:59:50.243Z,39.49
2023-05-27T02:00:50.361Z,39.49
2023-05-27T02:01:50.352Z,39.50
2023-05-27T02:02:50.452Z,39.56
2023-05-27T02:03:50.541Z,39.55
2023-05-27T02:04:50.495Z,39.57
2023-05-27T02:05:50.520Z,39.62
2023-05-27T02:06:50.564Z,39.63
2023-05-27T02:07:50.625Z,39.67
2023-05-27T02:08:50.657Z,39.66
2023-05-27T02:09:50.736Z,39.68
2023-05-27T02:10:50.766Z,39.70
2023-05-27T02:11:50.792Z,39.69
2023-05-27T02:12:50.845Z,39.73
2023-05-27T02:13:50.900Z,39.71
2023-05-27T02:14:50.927Z,39.69
2023-05-27T02:15:51.230Z,39.68
2023-05-27T02:16:51.071Z,39.64
2023-05-27T02:17:51.086Z,39.66
2023-05-27T02:18:51.140Z,39.69
2023-05-27T02:19:51.172Z,39.68
2023-05-27T02:20:51.257Z,39.64
2023-05-27T02:21:51.275Z,39.60
2023-05-27T02:22:51.324Z,39.58
2023-05-27T02:23:51.375Z,39.59
2023-05-27T02:24:51.422Z,39.60
2023-05-27T02:25:51.577Z,39.62
2023-05-27T02:26:51.516Z,39.65
2023-05-27T02:27:51.545Z,39.66
2023-05-27T02:28:51.624Z,39.66
2023-05-27T02:29:51.673Z,39.71
2023-05-27T02:30:51.730Z,39.70
2023-05-27T02:31:51.741Z,39.71
2023-05-27T02:32:51.820Z,39.75
2023-05-27T02:33:51.851Z,39.76
2023-05-27T02:34:51.889Z,39.77
2023-05-27T02:35:52.171Z,39.70
2023-05-27T02:36:51.971Z,39.73
2023-05-27T02:37:52.026Z,39.71
2023-05-27T02:38:52.097Z,39.72
2023-05-27T02:39:52.119Z,39.77
2023-05-27T02:40:52.173Z,39.75
2023-05-27T02:41:52.210Z,39.76
2023-05-27T02:42:52.242Z,39.80
2023-05-27T02:43:52.318Z,39.78
2023-05-27T02:44:52.341Z,39.77
2023-05-27T02:45:52.570Z,39.78
2023-05-27T02:46:52.580Z,39.80
2023-05-27T02:47:52.529Z,39.79
2023-05-27T02:48:52.563Z,39.83
2023-05-27T02:49:52.616Z,39.88
2023-05-27T02:50:52.646Z,39.86
2023-05-27T02:51:52.710Z,39.89
2023-05-27T02:52:52.788Z,39.93
2023-05-27T02:53:52.808Z,39.94
2023-05-27T02:54:52.856Z,39.98
2023-05-27T02:55:53.141Z,39.99
2023-05-27T02:56:52.960Z,39.97
2023-05-27T02:57:53.001Z,40.02
2023-05-27T02:58:53.062Z,40.03
2023-05-27T02:59:53.153Z,40.06
2023-05-27T03:00:53.166Z,40.10
2023-05-27T03:01:53.284Z,40.11
2023-05-27T03:02:53.393Z,40.03
2023-05-27T03:03:53.357Z,40.06
2023-05-27T03:04:53.385Z,40.09
2023-05-27T03:05:53.541Z,40.10
2023-05-27T03:06:53.465Z,40.08
2023-05-27T03:07:53.534Z,40.09
2023-05-27T03:08:53.578Z,40.08
2023-05-27T03:09:53.633Z,40.14
2023-05-27T03:10:53.699Z,40.10
2023-05-27T03:11:53.733Z,40.15
2023-05-27T03:12:53.785Z,40.16
2023-05-27T03:13:53.891Z,40.11
2023-05-27T03:14:53.894Z,40.18
2023-05-27T03:15:54.026Z,40.18
2023-05-27T03:16:54.024Z,40.22
2023-05-27T03:17:54.071Z,40.23
2023-05-27T03:18:54.124Z,40.29
2023-05-27T03:19:54.177Z,40.30
2023-05-27T03:20:54.217Z,40.33
2023-05-27T03:21:54.276Z,40.36
2023-05-27T03:22:54.308Z,40.29
2023-05-27T03:23:54.384Z,40.33
2023-05-27T03:24:54.413Z,40.37
2023-05-27T03:25:54.469Z,40.36
2023-05-27T03:26:54.538Z,40.40
2023-05-27T03:27:54.586Z,40.38
2023-05-27T03:28:54.633Z,40.43
2023-05-27T03:29:54.675Z,40.44
2023-05-27T03:30:54.740Z,40.46
2023-05-27T03:31:54.826Z,40.43
2023-05-27T03:32:54.891Z,40.44
2023-05-27T03:33:54.947Z,40.48
2023-05-27T03:34:54.965Z,40.48
2023-05-27T03:35:55.020Z,40.44
2023-05-27T03:36:55.069Z,40.47
2023-05-27T03:37:55.144Z,40.48
2023-05-27T03:38:55.184Z,40.46
2023-05-27T03:39:55.214Z,40.48
2023-05-27T03:40:55.273Z,40.52
2023-05-27T03:41:55.333Z,40.51
2023-05-27T03:42:55.392Z,40.46
2023-05-27T03:43:55.453Z,40.49
2023-05-27T03:44:55.508Z,40.57
2023-05-27T03:45:55.867Z,40.49
2023-05-27T03:46:55.596Z,40.51
2023-05-27T03:47:55.688Z,40.51
2023-05-27T03:48:55.696Z,40.52
2023-05-27T03:49:55.749Z,40.53
2023-05-27T03:50:55.810Z,40.57
2023-05-27T03:51:55.861Z,40.56
2023-05-27T03:52:55.916Z,40.55
2023-05-27T03:53:55.993Z,40.55
2023-05-27T03:54:56.025Z,40.56
2023-05-27T03:55:56.075Z,40.61
2023-05-27T03:56:56.158Z,40.60
2023-05-27T03:57:56.190Z,40.62
2023-05-27T03:58:56.229Z,40.64
2023-05-27T03:59:56.305Z,40.61
2023-05-27T04:00:56.332Z,40.64
2023-05-27T04:01:56.423Z,40.65
2023-05-27T04:02:56.528Z,40.64
2023-05-27T04:03:56.613Z,40.65
2023-05-27T04:04:56.561Z,40.67
2023-05-27T04:05:56.753Z,40.72
2023-05-27T04:06:56.658Z,40.70
2023-05-27T04:07:56.704Z,40.70
2023-05-27T04:08:56.765Z,40.69
2023-05-27T04:09:56.849Z,40.71
2023-05-27T04:10:56.873Z,40.73
2023-05-27T04:11:56.932Z,40.72
2023-05-27T04:12:56.994Z,40.69
2023-05-27T04:13:57.072Z,40.68
2023-05-27T04:14:57.104Z,40.68
2023-05-27T04:15:57.210Z,40.69
2023-05-27T04:16:57.230Z,40.75
2023-05-27T04:17:57.306Z,40.72
2023-05-27T04:18:57.348Z,40.76
2023-05-27T04:19:57.425Z,40.75
2023-05-27T04:20:57.443Z,40.75
2023-05-27T04:21:57.514Z,40.75
2023-05-27T04:22:57.568Z,40.70
2023-05-27T04:23:57.663Z,40.72
2023-05-27T04:24:57.667Z,40.75
2023-05-27T04:25:57.718Z,40.72
2023-05-27T04:26:57.802Z,40.72
2023-05-27T04:27:57.843Z,40.67
2023-05-27T04:28:57.888Z,40.68
2023-05-27T04:29:57.955Z,40.74
2023-05-27T04:30:58.014Z,40.72
2023-05-27T04:31:58.111Z,40.76
2023-05-27T04:32:58.155Z,40.80
2023-05-27T04:33:58.169Z,40.81
2023-05-27T04:34:58.242Z,40.83
2023-05-27T04:35:58.267Z,40.88
2023-05-27T04:36:58.311Z,40.90
2023-05-27T04:37:58.380Z,40.92
2023-05-27T04:38:58.448Z,40.90
2023-05-27T04:39:58.520Z,40.90
2023-05-27T04:40:58.558Z,40.91
2023-05-27T04:41:58.624Z,40.96
2023-05-27T04:42:58.676Z,40.94
2023-05-27T04:43:58.716Z,40.95
2023-05-27T04:44:58.794Z,40.99
2023-05-27T04:45:58.849Z,41.05
2023-05-27T04:46:58.985Z,41.03
2023-05-27T04:47:59.026Z,41.01
2023-05-27T04:48:59.018Z,41.09
2023-05-27T04:49:59.051Z,41.06
2023-05-27T04:50:59.121Z,41.02
2023-05-27T04:51:59.165Z,41.03
2023-05-27T04:53:00.130Z,41.06
2023-05-27T04:53:59.472Z,41.09
2023-05-27T04:54:59.528Z,41.04
2023-05-27T04:55:59.584Z,41.05
2023-05-27T04:56:59.639Z,41.00
2023-05-27T04:57:59.693Z,40.97
2023-05-27T04:58:59.770Z,40.99
2023-05-27T04:59:59.827Z,41.03
2023-05-27T05:00:59.868Z,41.02
2023-05-27T05:01:59.994Z,40.92
2023-05-27T05:03:00.101Z,40.97
2023-05-27T05:04:00.090Z,40.90
2023-05-27T05:05:00.082Z,40.96
2023-05-27T05:06:00.182Z,41.03
2023-05-27T05:07:00.217Z,41.02
2023-05-27T05:08:00.217Z,40.98
2023-05-27T05:09:00.270Z,41.15
2023-05-27T05:10:00.308Z,41.19
2023-05-27T05:11:00.339Z,41.13
2023-05-27T05:12:00.405Z,41.15
2023-05-27T05:13:00.448Z,41.20
2023-05-27T05:14:00.480Z,41.18
2023-05-27T05:15:00.541Z,41.10
2023-05-27T05:16:00.579Z,41.02
2023-05-27T05:17:00.700Z,41.15
2023-05-27T05:18:01.885Z,41.14
2023-05-27T05:19:00.718Z,40.99
2023-05-27T05:20:00.805Z,41.01
2023-05-27T05:21:00.769Z,40.82
2023-05-27T05:22:00.819Z,40.92
2023-05-27T05:23:00.862Z,40.82
2023-05-27T05:24:00.901Z,40.81
2023-05-27T05:25:00.936Z,40.84
2023-05-27T05:26:00.944Z,40.77
2023-05-27T05:27:00.972Z,40.74
2023-05-27T05:28:01.025Z,40.69
2023-05-27T05:29:01.073Z,40.62
2023-05-27T05:30:01.104Z,40.57
2023-05-27T05:31:01.119Z,40.49
2023-05-27T05:32:01.170Z,40.53
2023-05-27T05:33:01.239Z,40.51
2023-05-27T05:34:01.154Z,40.49
2023-05-27T05:35:01.166Z,40.45
2023-05-27T05:36:01.202Z,40.46
2023-05-27T05:37:01.200Z,40.31
2023-05-27T05:38:01.200Z,40.15
2023-05-27T05:39:01.246Z,40.13
2023-05-27T05:40:01.214Z,40.17
2023-05-27T05:41:01.246Z,40.21
2023-05-27T05:42:01.261Z,40.11
2023-05-27T05:43:01.235Z,40.05
2023-05-27T05:44:01.254Z,39.94
2023-05-27T05:45:01.239Z,39.90
2023-05-27T05:46:01.393Z,39.85
2023-05-27T05:47:01.245Z,39.81
2023-05-27T05:48:01.292Z,39.78
2023-05-27T05:49:01.272Z,39.75
2023-05-27T05:50:01.268Z,39.73
2023-05-27T05:51:01.268Z,39.71
2023-05-27T05:52:01.273Z,39.67
2023-05-27T05:53:01.290Z,39.65
2023-05-27T05:54:01.296Z,39.64
2023-05-27T05:55:01.319Z,39.63
2023-05-27T05:56:01.329Z,39.60
2023-05-27T05:57:01.365Z,39.58
2023-05-27T05:58:01.427Z,39.58
2023-05-27T05:59:01.485Z,39.55
2023-05-27T06:00:01.552Z,39.53
2023-05-27T06:01:01.594Z,39.47
2023-05-27T06:02:01.768Z,39.48
2023-05-27T06:03:01.792Z,39.46
2023-05-27T06:04:01.908Z,39.42
2023-05-27T06:05:01.823Z,39.41
2023-05-27T06:06:01.892Z,39.37
2023-05-27T06:07:02.273Z,39.37
2023-05-27T06:08:02.005Z,39.37
2023-05-27T06:09:02.082Z,39.35
2023-05-27T06:10:02.138Z,39.36
2023-05-27T06:11:02.188Z,39.38
2023-05-27T06:12:02.248Z,39.33
2023-05-27T06:13:02.292Z,39.30
2023-05-27T06:14:02.459Z,39.28
2023-05-27T06:15:02.403Z,39.26
2023-05-27T06:16:02.507Z,39.27
2023-05-27T06:17:02.518Z,39.23
2023-05-27T06:18:02.596Z,39.19
2023-05-27T06:19:02.660Z,39.16
2023-05-27T06:20:02.712Z,39.14
2023-05-27T06:21:02.770Z,39.07
2023-05-27T06:22:02.783Z,39.04
2023-05-27T06:23:02.853Z,39.02
2023-05-27T06:24:02.888Z,38.97
2023-05-27T06:25:02.970Z,38.96
2023-05-27T06:26:02.992Z,38.93
2023-05-27T06:27:03.020Z,38.96
2023-05-27T06:28:03.068Z,38.92
2023-05-27T06:29:03.120Z,38.89
2023-05-27T06:30:03.173Z,38.90
2023-05-27T06:31:03.264Z,38.91
2023-05-27T06:32:03.371Z,38.88
2023-05-27T06:33:03.355Z,38.87
2023-05-27T06:34:03.362Z,38.89
2023-05-27T06:35:03.424Z,38.90
2023-05-27T06:36:03.446Z,38.89
2023-05-27T06:37:03.504Z,38.89
2023-05-27T06:38:03.547Z,38.90
2023-05-27T06:39:03.623Z,38.90
2023-05-27T06:40:03.639Z,38.89
2023-05-27T06:41:03.674Z,38.84
2023-05-27T06:42:03.736Z,38.86
2023-05-27T06:43:03.778Z,38.86
2023-05-27T06:44:03.828Z,38.88
2023-05-27T06:45:03.870Z,38.88
2023-05-27T06:46:05.344Z,38.88
2023-05-27T06:47:04.060Z,38.91
2023-05-27T06:48:04.067Z,38.90
2023-05-27T06:49:04.052Z,38.91
2023-05-27T06:50:04.074Z,38.87
2023-05-27T06:51:04.111Z,38.93
2023-05-27T06:52:04.158Z,38.89
2023-05-27T06:53:04.207Z,38.91
2023-05-27T06:54:04.269Z,38.86
2023-05-27T06:55:04.297Z,38.87
2023-05-27T06:56:04.322Z,38.85
2023-05-27T06:57:04.358Z,38.83
2023-05-27T06:58:04.380Z,38.81
2023-05-27T06:59:04.450Z,38.78
2023-05-27T07:00:04.468Z,38.77
2023-05-27T07:01:04.488Z,38.74
2023-05-27T07:02:04.525Z,38.74
2023-05-27T07:03:04.618Z,38.73
2023-05-27T07:04:04.578Z,38.65
2023-05-27T07:05:04.607Z,38.66
2023-05-27T07:06:04.664Z,38.61
2023-05-27T07:07:04.639Z,38.59
2023-05-27T07:08:04.678Z,38.59
2023-05-27T07:09:04.708Z,38.60
2023-05-27T07:10:05.033Z,38.55
2023-05-27T07:11:04.733Z,38.57
2023-05-27T07:12:04.765Z,38.55
2023-05-27T07:13:04.786Z,38.55
2023-05-27T07:14:04.855Z,38.53
2023-05-27T07:15:04.814Z,38.49
2023-05-27T07:16:04.861Z,38.47
2023-05-27T07:17:04.826Z,38.44
2023-05-27T07:18:04.946Z,38.39
2023-05-27T07:19:04.865Z,38.36
2023-05-27T07:20:04.871Z,38.36
2023-05-27T07:21:04.864Z,38.35
2023-05-27T07:22:04.872Z,38.33
2023-05-27T07:23:04.877Z,38.31
2023-05-27T07:24:04.876Z,38.32
2023-05-27T07:25:04.885Z,38.30
2023-05-27T07:26:04.883Z,38.28
2023-05-27T07:27:04.911Z,38.28
2023-05-27T07:28:04.920Z,38.30
2023-05-27T07:29:04.934Z,38.27
2023-05-27T07:30:04.982Z,38.28
2023-05-27T07:31:04.923Z,38.25
2023-05-27T07:32:04.911Z,38.26
2023-05-27T07:33:04.932Z,38.26
2023-05-27T07:34:04.908Z,38.19
2023-05-27T07:35:04.916Z,38.20
2023-05-27T07:36:04.916Z,38.18
2023-05-27T07:37:04.925Z,38.19
2023-05-27T07:38:04.930Z,38.18
2023-05-27T07:39:04.948Z,38.18
2023-05-27T07:40:04.945Z,38.19
2023-05-27T07:41:04.951Z,38.16
2023-05-27T07:42:04.946Z,38.14
2023-05-27T07:43:04.935Z,38.13
2023-05-27T07:44:04.949Z,38.11
2023-05-27T07:45:04.964Z,38.13
2023-05-27T07:46:04.988Z,38.13
2023-05-27T07:47:05.012Z,38.11
2023-05-27T07:48:05.010Z,38.09
2023-05-27T07:49:04.946Z,38.10
2023-05-27T07:50:04.936Z,38.08
2023-05-27T07:51:04.945Z,38.08
2023-05-27T07:52:04.930Z,38.07
2023-05-27T07:53:04.977Z,38.06
2023-05-27T07:54:04.961Z,38.07
2023-05-27T07:55:04.925Z,38.05
2023-05-27T07:56:04.950Z,38.05
2023-05-27T07:57:05.131Z,38.05
2023-05-27T07:58:04.930Z,38.02
2023-05-27T07:59:04.962Z,38.02
2023-05-27T08:00:05.011Z,38.04
2023-05-27T08:01:05.034Z,38.03
2023-05-27T08:02:05.072Z,38.02
2023-05-27T08:03:05.018Z,38.03
2023-05-27T08:04:16.300Z,38.04
2023-05-27T08:05:06.037Z,38.03
2023-05-27T08:06:05.029Z,38.04
2023-05-27T08:07:05.028Z,38.04
2023-05-27T08:08:04.994Z,38.02
2023-05-27T08:09:04.981Z,38.00
2023-05-27T08:10:04.983Z,38.00
2023-05-27T08:11:04.956Z,38.00
2023-05-27T08:12:04.947Z,38.02
2023-05-27T08:13:04.950Z,38.01
2023-05-27T08:14:05.027Z,37.99
2023-05-27T08:15:05.097Z,37.99
2023-05-27T08:16:05.176Z,37.97
2023-05-27T08:17:05.349Z,37.96
2023-05-27T08:18:05.345Z,37.96
2023-05-27T08:19:05.342Z,38.00
2023-05-27T08:20:05.432Z,38.01
2023-05-27T08:21:05.466Z,38.00
2023-05-27T08:22:05.920Z,37.97
2023-05-27T08:23:05.583Z,37.94
2023-05-27T08:24:05.647Z,37.95
2023-05-27T08:25:05.694Z,37.93
2023-05-27T08:26:05.753Z,37.92
2023-05-27T08:27:05.824Z,37.91
2023-05-27T08:28:05.889Z,37.90
2023-05-27T08:29:05.944Z,37.87
2023-05-27T08:30:06.002Z,37.85
2023-05-27T08:31:06.046Z,37.86
2023-05-27T08:32:06.171Z,37.86
2023-05-27T08:33:06.208Z,37.87
2023-05-27T08:34:06.206Z,37.85
2023-05-27T08:35:06.284Z,37.84
2023-05-27T08:36:06.347Z,37.80
2023-05-27T08:37:06.372Z,37.76
2023-05-27T08:38:06.422Z,37.78
2023-05-27T08:39:06.478Z,37.76
2023-05-27T08:40:06.547Z,37.77
2023-05-27T08:41:06.737Z,37.75
2023-05-27T08:42:06.652Z,37.73
2023-05-27T08:43:06.681Z,37.71
2023-05-27T08:44:20.493Z,37.70
2023-05-27T08:45:07.728Z,37.67
2023-05-27T08:46:06.754Z,37.67
2023-05-27T08:47:06.726Z,37.65
2023-05-27T08:48:06.764Z,37.63
2023-05-27T08:49:06.691Z,37.62
2023-05-27T08:50:06.709Z,37.59
2023-05-27T08:51:06.754Z,37.59
2023-05-27T08:52:06.688Z,37.59
2023-05-27T08:53:06.690Z,37.57
2023-05-27T08:54:06.657Z,37.54
2023-05-27T08:55:06.663Z,37.52
2023-05-27T08:56:06.646Z,37.53
2023-05-27T08:57:06.721Z,37.51
2023-05-27T08:58:06.727Z,37.49
2023-05-27T08:59:06.770Z,37.48
2023-05-27T09:00:06.825Z,37.46
2023-05-27T09:01:06.890Z,37.46
2023-05-27T09:02:06.979Z,37.47
2023-05-27T09:03:06.969Z,37.44
2023-05-27T09:04:07.075Z,37.40
2023-05-27T09:05:07.036Z,37.41
2023-05-27T09:06:07.073Z,37.41
2023-05-27T09:07:07.082Z,37.39
2023-05-27T09:08:07.125Z,37.39
2023-05-27T09:09:07.140Z,37.36
2023-05-27T09:10:07.185Z,37.36
2023-05-27T09:11:07.289Z,37.37
2023-05-27T09:12:07.274Z,37.31
2023-05-27T09:13:07.301Z,37.31
2023-05-27T09:14:07.349Z,37.33
2023-05-27T09:15:07.394Z,37.27
2023-05-27T09:16:07.439Z,37.28
2023-05-27T09:17:07.461Z,37.27
2023-05-27T09:18:07.492Z,37.24
2023-05-27T09:19:07.577Z,37.20
2023-05-27T09:20:07.594Z,37.20
2023-05-27T09:21:07.619Z,37.21
2023-05-27T09:22:07.627Z,37.17
2023-05-27T09:23:07.687Z,37.18
2023-05-27T09:24:07.673Z,37.16
2023-05-27T09:25:07.720Z,37.15
2023-05-27T09:26:07.744Z,37.11
2023-05-27T09:27:07.779Z,37.12
2023-05-27T09:28:07.834Z,37.10
2023-05-27T09:29:07.858Z,37.07
2023-05-27T09:30:07.900Z,37.06
2023-05-27T09:31:08.025Z,37.07
2023-05-27T09:32:07.946Z,37.02
2023-05-27T09:33:07.994Z,37.02
2023-05-27T09:34:08.005Z,37.01
2023-05-27T09:35:08.057Z,36.98
2023-05-27T09:36:08.079Z,36.93
2023-05-27T09:37:08.085Z,36.89
2023-05-27T09:38:08.134Z,36.92
2023-05-27T09:39:08.143Z,36.90
2023-05-27T09:40:08.176Z,36.86
2023-05-27T09:41:08.201Z,36.85
2023-05-27T09:42:08.208Z,36.83
2023-05-27T09:43:08.245Z,36.85
2023-05-27T09:44:08.278Z,36.82
2023-05-27T09:45:08.298Z,36.80
2023-05-27T09:46:08.343Z,36.75
2023-05-27T09:47:08.326Z,36.75
2023-05-27T09:48:08.367Z,36.70
2023-05-27T09:49:08.383Z,36.70
2023-05-27T09:50:08.420Z,36.70
2023-05-27T09:51:08.406Z,36.65
2023-05-27T09:52:08.426Z,36.66
2023-05-27T09:53:12.254Z,36.62
2023-05-27T09:54:08.484Z,36.62
2023-05-27T09:55:08.435Z,36.58
2023-05-27T09:56:08.451Z,36.57
2023-05-27T09:57:08.416Z,36.56
2023-05-27T09:58:08.411Z,36.54
2023-05-27T09:59:08.408Z,36.53
2023-05-27T10:00:08.410Z,36.52
2023-05-27T10:01:08.401Z,36.48
2023-05-27T10:02:08.381Z,36.48
2023-05-27T10:03:08.370Z,36.48
2023-05-27T10:04:08.378Z,36.45
2023-05-27T10:05:08.416Z,36.44
2023-05-27T10:06:08.352Z,36.39
2023-05-27T10:07:09.677Z,36.38
2023-05-27T10:08:17.065Z,36.34
2023-05-27T10:09:09.333Z,36.37
2023-05-27T10:10:08.365Z,36.33
2023-05-27T10:11:08.335Z,36.30
2023-05-27T10:12:08.303Z,36.28
2023-05-27T10:13:08.293Z,36.25
2023-05-27T10:14:08.300Z,36.26
2023-05-27T10:15:08.293Z,36.25
2023-05-27T10:16:08.284Z,36.23
2023-05-27T10:17:08.360Z,36.19
2023-05-27T10:18:08.283Z,36.20
2023-05-27T10:19:08.250Z,36.17
2023-05-27T10:20:08.292Z,36.13
2023-05-27T10:21:08.242Z,36.12
2023-05-27T10:22:08.251Z,36.09
2023-05-27T10:23:08.229Z,36.05
2023-05-27T10:24:08.219Z,36.03
2023-05-27T10:25:08.230Z,36.02
2023-05-27T10:26:08.209Z,36.01
2023-05-27T10:27:08.219Z,35.98
2023-05-27T10:28:08.193Z,35.94
2023-05-27T10:29:08.306Z,35.92
2023-05-27T10:30:08.188Z,35.94
2023-05-27T10:31:08.223Z,35.88
2023-05-27T10:32:08.191Z,35.86
2023-05-27T10:33:08.205Z,35.87
2023-05-27T10:34:08.185Z,35.82
2023-05-27T10:35:08.180Z,35.79
2023-05-27T10:36:08.162Z,35.74
2023-05-27T10:37:08.198Z,35.76
2023-05-27T10:38:08.198Z,35.70
2023-05-27T10:39:08.280Z,35.72
2023-05-27T10:40:08.248Z,35.70
2023-05-27T10:41:08.273Z,35.68
2023-05-27T10:42:08.291Z,35.66
2023-05-27T10:43:08.294Z,35.64
2023-05-27T10:44:08.330Z,35.63
2023-05-27T10:45:08.330Z,35.60
2023-05-27T10:46:08.416Z,35.60
2023-05-27T10:47:08.408Z,35.54
2023-05-27T10:48:08.554Z,35.56
2023-05-27T10:49:08.404Z,35.53
2023-05-27T10:50:08.438Z,35.53
2023-05-27T10:51:08.454Z,35.47
2023-05-27T10:52:08.461Z,35.48
2023-05-27T10:53:08.496Z,35.47
2023-05-27T10:55:08.532Z,35.44
2023-05-27T10:56:08.515Z,35.42
2023-05-27T10:57:08.517Z,35.38
2023-05-27T10:58:08.490Z,35.37
2023-05-27T10:59:08.494Z,35.33
2023-05-27T11:00:08.495Z,35.32
2023-05-27T11:01:08.492Z,35.28
2023-05-27T11:02:08.514Z,35.28
2023-05-27T11:03:08.611Z,35.29
2023-05-27T11:04:08.899Z,35.27
2023-05-27T11:05:08.460Z,35.23
2023-05-27T11:06:08.460Z,35.21
2023-05-27T11:07:08.453Z,35.20
2023-05-27T11:08:08.440Z,35.18
2023-05-27T11:09:08.438Z,35.17
2023-05-27T11:10:08.438Z,35.12
2023-05-27T11:11:08.426Z,35.13
2023-05-27T11:12:08.428Z,35.10
2023-05-27T11:13:08.396Z,35.06
2023-05-27T11:14:08.400Z,35.01
2023-05-27T11:15:08.431Z,35.03
2023-05-27T11:16:08.478Z,35.02
2023-05-27T11:17:08.378Z,34.96
2023-05-27T11:18:08.415Z,34.96
2023-05-27T11:19:08.354Z,34.94
2023-05-27T11:20:09.111Z,34.92
2023-05-27T11:21:08.343Z,34.89
2023-05-27T11:22:08.350Z,34.89
2023-05-27T11:23:08.348Z,34.88
2023-05-27T11:24:08.325Z,34.89
2023-05-27T11:25:08.333Z,34.86
2023-05-27T11:26:08.305Z,34.86
2023-05-27T11:27:08.322Z,34.86
2023-05-27T11:28:08.319Z,34.85
2023-05-27T11:29:08.291Z,34.86
2023-05-27T11:30:08.333Z,34.85
2023-05-27T11:31:08.303Z,34.84
2023-05-27T11:32:08.277Z,34.83
2023-05-27T11:33:16.755Z,34.81
2023-05-27T11:34:09.257Z,34.82
2023-05-27T11:35:08.304Z,34.83
2023-05-27T11:36:08.256Z,34.80
2023-05-27T11:37:08.244Z,34.80
2023-05-27T11:38:08.251Z,34.82
2023-05-27T11:39:08.219Z,34.80
2023-05-27T11:40:08.228Z,34.80
2023-05-27T11:41:08.221Z,34.79
2023-05-27T11:42:08.199Z,34.78
2023-05-27T11:43:08.206Z,34.76
2023-05-27T11:44:08.195Z,34.79
2023-05-27T11:45:08.206Z,34.75
2023-05-27T11:46:08.243Z,34.76
2023-05-27T11:47:08.164Z,34.75
2023-05-27T11:48:08.280Z,34.74
2023-05-27T11:49:08.178Z,34.71
2023-05-27T11:50:08.157Z,34.71
2023-05-27T11:51:08.140Z,34.70
2023-05-27T11:52:08.133Z,34.66
2023-05-27T11:53:08.135Z,34.67
2023-05-27T11:54:08.145Z,34.67
2023-05-27T11:55:08.157Z,34.64
2023-05-27T11:56:08.152Z,34.62
2023-05-27T11:57:08.152Z,34.61
2023-05-27T11:58:08.193Z,34.61
2023-05-27T11:59:08.210Z,34.62
2023-05-27T12:00:08.231Z,34.59
2023-05-27T12:01:08.267Z,34.57
2023-05-27T12:02:08.346Z,34.57
2023-05-27T12:03:08.390Z,34.54
2023-05-27T12:04:08.330Z,34.53
2023-05-27T12:05:10.977Z,34.52
2023-05-27T12:06:09.364Z,34.50
2023-05-27T12:07:18.948Z,34.51
2023-05-27T12:08:09.323Z,34.49
2023-05-27T12:09:08.326Z,34.46
2023-05-27T12:10:08.326Z,34.49
2023-05-27T12:11:08.364Z,34.46
2023-05-27T12:12:08.296Z,34.45
2023-05-27T12:13:08.300Z,34.44
2023-05-27T12:14:08.278Z,34.42
2023-05-27T12:15:08.304Z,34.41
2023-05-27T12:16:08.371Z,34.39
2023-05-27T12:17:08.263Z,34.43
2023-05-27T12:18:08.315Z,34.40
2023-05-27T12:19:08.262Z,34.38
2023-05-27T12:20:08.329Z,34.38
2023-05-27T12:21:08.257Z,34.38
2023-05-27T12:22:08.243Z,34.36
2023-05-27T12:23:08.238Z,34.36
2023-05-27T12:24:08.233Z,34.35
2023-05-27T12:25:08.212Z,34.36
2023-05-27T12:26:08.212Z,34.34
2023-05-27T12:27:08.239Z,34.31
2023-05-27T12:28:08.276Z,34.31
2023-05-27T12:29:08.309Z,34.32
2023-05-27T12:30:08.349Z,34.32
2023-05-27T12:31:08.431Z,34.31
2023-05-27T12:32:08.400Z,34.29
2023-05-27T12:33:08.512Z,34.32
2023-05-27T12:34:08.487Z,34.27
2023-05-27T12:35:08.500Z,34.26
2023-05-27T12:36:08.552Z,34.29
2023-05-27T12:37:10.836Z,34.29
2023-05-27T12:38:08.595Z,34.31
2023-05-27T12:39:08.555Z,34.29
2023-05-27T12:40:08.557Z,34.25
2023-05-27T12:41:08.554Z,34.26
2023-05-27T12:42:08.547Z,34.24
2023-05-27T12:43:08.534Z,34.22
2023-05-27T12:44:08.521Z,34.22
2023-05-27T12:45:08.536Z,34.22
2023-05-27T12:46:08.510Z,34.22
2023-05-27T12:47:08.617Z,34.24
2023-05-27T12:48:08.572Z,34.20
2023-05-27T12:49:08.561Z,34.22
2023-05-27T12:50:08.573Z,34.20
2023-05-27T12:51:08.484Z,34.19
2023-05-27T12:52:08.484Z,34.17
2023-05-27T12:53:08.461Z,34.16
2023-05-27T12:54:08.464Z,34.17